sensor_id;sensor_type;location;lat;lon;timestamp;pressure;altitude;pressure_sealevel;temperature;humidity
17785;BME280;9016;53.582;10.062;2023-07-13T00:00:42;101147.06;;;20.19;78.12
17785;BME280;9016;53.582;10.062;2023-07-13T00:03:10;101154.59;;;20.15;77.48
17785;BME280;9016;53.582;10.062;2023-07-13T00:05:41;101152.19;;;20.03;78.02
17785;BME280;9016;53.582;10.062;2023-07-13T00:08:10;101157.28;;;19.96;79.03
17785;BME280;9016;53.582;10.062;2023-07-13T00:10:41;101152.03;;;19.85;80.00
17785;BME280;9016;53.582;10.062;2023-07-13T00:13:09;101145.47;;;19.78;80.74
17785;BME280;9016;53.582;10.062;2023-07-13T00:15:37;101156.28;;;19.68;81.09
17785;BME280;9016;53.582;10.062;2023-07-13T00:18:05;101146.31;;;19.59;81.97
17785;BME280;9016;53.582;10.062;2023-07-13T00:20:33;101149.72;;;19.61;81.85
17785;BME280;9016;53.582;10.062;2023-07-13T00:23:03;101143.03;;;19.56;82.37
17785;BME280;9016;53.582;10.062;2023-07-13T00:25:31;101145.31;;;19.51;82.77
17785;BME280;9016;53.582;10.062;2023-07-13T00:27:59;101149.41;;;19.45;83.06
17785;BME280;9016;53.582;10.062;2023-07-13T00:30:27;101137.72;;;19.35;83.67
17785;BME280;9016;53.582;10.062;2023-07-13T00:32:55;101154.66;;;19.37;83.79
17785;BME280;9016;53.582;10.062;2023-07-13T00:35:43;101144.28;;;19.33;84.84
17785;BME280;9016;53.582;10.062;2023-07-13T00:38:12;101156.06;;;19.32;85.14
17785;BME280;9016;53.582;10.062;2023-07-13T00:40:41;101157.56;;;19.25;85.42
17785;BME280;9016;53.582;10.062;2023-07-13T00:43:12;101152.31;;;19.23;85.71
17785;BME280;9016;53.582;10.062;2023-07-13T00:46:23;101154.69;;;19.17;86.77
17785;BME280;9016;53.582;10.062;2023-07-13T00:48:53;101152.56;;;19.11;86.92
17785;BME280;9016;53.582;10.062;2023-07-13T00:51:26;101151.28;;;19.15;87.33
17785;BME280;9016;53.582;10.062;2023-07-13T00:53:59;101158.22;;;19.08;87.95
17785;BME280;9016;53.582;10.062;2023-07-13T00:56:28;101156.25;;;19.10;87.68
17785;BME280;9016;53.582;10.062;2023-07-13T00:58:57;101157.25;;;19.09;88.21
17785;BME280;9016;53.582;10.062;2023-07-13T01:01:27;101160.09;;;19.07;88.41
17785;BME280;9016;53.582;10.062;2023-07-13T01:03:55;101161.78;;;19.08;88.72
17785;BME280;9016;53.582;10.062;2023-07-13T01:06:24;101157.38;;;19.07;89.12
17785;BME280;9016;53.582;10.062;2023-07-13T01:08:52;101160.91;;;19.08;88.93
17785;BME280;9016;53.582;10.062;2023-07-13T01:11:21;101155.38;;;19.09;88.54
17785;BME280;9016;53.582;10.062;2023-07-13T01:13:50;101163.75;;;19.06;89.22
17785;BME280;9016;53.582;10.062;2023-07-13T01:16:23;101152.91;;;18.97;90.14
17785;BME280;9016;53.582;10.062;2023-07-13T01:18:52;101160.88;;;18.98;90.03
17785;BME280;9016;53.582;10.062;2023-07-13T01:21:22;101156.63;;;18.96;90.60
17785;BME280;9016;53.582;10.062;2023-07-13T01:23:50;101158.91;;;19.00;89.62
17785;BME280;9016;53.582;10.062;2023-07-13T01:26:18;101155.94;;;19.03;89.06
17785;BME280;9016;53.582;10.062;2023-07-13T01:28:46;101168.72;;;19.01;88.86
17785;BME280;9016;53.582;10.062;2023-07-13T01:31:14;101164.06;;;19.03;88.67
17785;BME280;9016;53.582;10.062;2023-07-13T01:33:43;101168.59;;;19.03;88.99
17785;BME280;9016;53.582;10.062;2023-07-13T01:36:11;101161.00;;;18.97;88.89
17785;BME280;9016;53.582;10.062;2023-07-13T01:38:41;101158.16;;;18.89;89.85
17785;BME280;9016;53.582;10.062;2023-07-13T01:41:10;101154.75;;;18.87;90.35
17785;BME280;9016;53.582;10.062;2023-07-13T01:43:38;101166.38;;;18.87;90.10
17785;BME280;9016;53.582;10.062;2023-07-13T01:46:06;101166.66;;;18.84;90.26
17785;BME280;9016;53.582;10.062;2023-07-13T01:48:48;101156.97;;;18.82;90.40
17785;BME280;9016;53.582;10.062;2023-07-13T01:51:18;101155.13;;;18.82;90.50
17785;BME280;9016;53.582;10.062;2023-07-13T01:53:48;101144.84;;;18.76;91.00
17785;BME280;9016;53.582;10.062;2023-07-13T01:56:16;101151.69;;;18.80;91.07
17785;BME280;9016;53.582;10.062;2023-07-13T01:58:44;101149.59;;;18.84;90.57
17785;BME280;9016;53.582;10.062;2023-07-13T02:01:12;101138.19;;;18.80;90.65
17785;BME280;9016;53.582;10.062;2023-07-13T02:03:40;101146.59;;;18.77;91.41
17785;BME280;9016;53.582;10.062;2023-07-13T02:06:08;101149.13;;;18.78;90.88
17785;BME280;9016;53.582;10.062;2023-07-13T02:08:37;101156.22;;;18.70;91.41
17785;BME280;9016;53.582;10.062;2023-07-13T02:11:06;101147.25;;;18.69;91.34
17785;BME280;9016;53.582;10.062;2023-07-13T02:13:34;101150.63;;;18.62;92.39
17785;BME280;9016;53.582;10.062;2023-07-13T02:16:02;101160.97;;;18.57;92.61
17785;BME280;9016;53.582;10.062;2023-07-13T02:18:30;101159.09;;;18.57;92.59
17785;BME280;9016;53.582;10.062;2023-07-13T02:20:58;101160.97;;;18.57;92.70
17785;BME280;9016;53.582;10.062;2023-07-13T02:23:26;101158.94;;;18.49;93.53
17785;BME280;9016;53.582;10.062;2023-07-13T02:25:55;101166.31;;;18.47;93.96
17785;BME280;9016;53.582;10.062;2023-07-13T02:28:24;101168.56;;;18.42;94.10
17785;BME280;9016;53.582;10.062;2023-07-13T02:30:52;101168.41;;;18.44;94.14
17785;BME280;9016;53.582;10.062;2023-07-13T02:33:20;101169.38;;;18.43;94.36
17785;BME280;9016;53.582;10.062;2023-07-13T02:35:48;101164.91;;;18.53;93.75
17785;BME280;9016;53.582;10.062;2023-07-13T02:38:16;101168.28;;;18.45;93.89
17785;BME280;9016;53.582;10.062;2023-07-13T02:40:46;101162.38;;;18.40;93.97
17785;BME280;9016;53.582;10.062;2023-07-13T02:43:14;101163.91;;;18.33;94.50
17785;BME280;9016;53.582;10.062;2023-07-13T02:45:45;101164.59;;;18.35;94.52
17785;BME280;9016;53.582;10.062;2023-07-13T02:48:13;101161.06;;;18.35;94.02
17785;BME280;9016;53.582;10.062;2023-07-13T02:50:41;101165.88;;;18.31;94.76
17785;BME280;9016;53.582;10.062;2023-07-13T02:53:09;101161.97;;;18.24;94.54
17785;BME280;9016;53.582;10.062;2023-07-13T02:55:37;101163.56;;;18.27;94.43
17785;BME280;9016;53.582;10.062;2023-07-13T02:58:07;101162.47;;;18.29;94.20
17785;BME280;9016;53.582;10.062;2023-07-13T03:00:39;101161.72;;;18.27;93.84
17785;BME280;9016;53.582;10.062;2023-07-13T03:03:09;101168.81;;;18.28;93.27
17785;BME280;9016;53.582;10.062;2023-07-13T03:05:37;101169.09;;;18.25;93.41
17785;BME280;9016;53.582;10.062;2023-07-13T03:08:05;101174.63;;;18.24;93.30
17785;BME280;9016;53.582;10.062;2023-07-13T03:10:33;101167.13;;;18.27;92.95
17785;BME280;9016;53.582;10.062;2023-07-13T03:13:01;101166.72;;;18.32;91.93
17785;BME280;9016;53.582;10.062;2023-07-13T03:15:29;101161.31;;;18.32;91.65
17785;BME280;9016;53.582;10.062;2023-07-13T03:17:57;101157.78;;;18.31;91.50
17785;BME280;9016;53.582;10.062;2023-07-13T03:20:27;101158.53;;;18.33;91.45
17785;BME280;9016;53.582;10.062;2023-07-13T03:22:55;101156.41;;;18.37;90.69
17785;BME280;9016;53.582;10.062;2023-07-13T03:25:23;101160.72;;;18.28;91.03
17785;BME280;9016;53.582;10.062;2023-07-13T03:27:51;101158.31;;;18.25;91.26
17785;BME280;9016;53.582;10.062;2023-07-13T03:30:19;101168.69;;;18.30;91.00
17785;BME280;9016;53.582;10.062;2023-07-13T03:32:47;101162.69;;;18.26;90.94
17785;BME280;9016;53.582;10.062;2023-07-13T03:35:16;101160.88;;;18.27;90.37
17785;BME280;9016;53.582;10.062;2023-07-13T03:37:45;101162.47;;;18.29;90.09
17785;BME280;9016;53.582;10.062;2023-07-13T03:40:13;101162.97;;;18.23;90.49
17785;BME280;9016;53.582;10.062;2023-07-13T03:42:41;101156.97;;;18.20;90.27
17785;BME280;9016;53.582;10.062;2023-07-13T03:45:09;101152.31;;;18.22;90.09
17785;BME280;9016;53.582;10.062;2023-07-13T03:47:37;101160.41;;;18.22;89.62
17785;BME280;9016;53.582;10.062;2023-07-13T03:50:06;101163.25;;;18.20;89.79
17785;BME280;9016;53.582;10.062;2023-07-13T03:52:34;101156.97;;;18.20;89.15
17785;BME280;9016;53.582;10.062;2023-07-13T03:55:04;101159.41;;;18.23;88.91
17785;BME280;9016;53.582;10.062;2023-07-13T03:57:33;101165.66;;;18.23;88.35
17785;BME280;9016;53.582;10.062;2023-07-13T04:00:05;101170.94;;;18.25;88.48
17785;BME280;9016;53.582;10.062;2023-07-13T04:02:34;101171.78;;;18.25;88.27
17785;BME280;9016;53.582;10.062;2023-07-13T04:05:04;101174.94;;;18.30;87.96
17785;BME280;9016;53.582;10.062;2023-07-13T04:07:33;101174.50;;;18.25;88.67
17785;BME280;9016;53.582;10.062;2023-07-13T04:10:01;101172.25;;;18.30;88.65
17785;BME280;9016;53.582;10.062;2023-07-13T04:12:31;101178.81;;;18.37;87.57
17785;BME280;9016;53.582;10.062;2023-07-13T04:14:58;101175.88;;;18.40;86.47
17785;BME280;9016;53.582;10.062;2023-07-13T04:17:26;101176.38;;;18.45;84.04
17785;BME280;9016;53.582;10.062;2023-07-13T04:19:54;101168.63;;;18.41;82.87
17785;BME280;9016;53.582;10.062;2023-07-13T04:22:22;101176.44;;;18.55;82.23
17785;BME280;9016;53.582;10.062;2023-07-13T04:24:50;101174.25;;;18.49;81.54
17785;BME280;9016;53.582;10.062;2023-07-13T04:27:18;101178.78;;;18.48;81.97
17785;BME280;9016;53.582;10.062;2023-07-13T04:29:52;101164.50;;;18.57;81.26
17785;BME280;9016;53.582;10.062;2023-07-13T04:32:20;101169.00;;;18.68;81.32
17785;BME280;9016;53.582;10.062;2023-07-13T04:34:50;101167.59;;;18.73;80.34
17785;BME280;9016;53.582;10.062;2023-07-13T04:37:20;101168.31;;;18.75;80.64
17785;BME280;9016;53.582;10.062;2023-07-13T04:39:49;101168.75;;;18.81;79.95
17785;BME280;9016;53.582;10.062;2023-07-13T04:42:17;101165.03;;;18.72;79.62
17785;BME280;9016;53.582;10.062;2023-07-13T04:44:48;101170.78;;;18.88;79.34
17785;BME280;9016;53.582;10.062;2023-07-13T04:47:17;101169.13;;;18.97;78.67
17785;BME280;9016;53.582;10.062;2023-07-13T04:49:45;101169.69;;;19.00;78.42
17785;BME280;9016;53.582;10.062;2023-07-13T04:52:13;101169.69;;;19.00;77.89
17785;BME280;9016;53.582;10.062;2023-07-13T04:54:41;101179.09;;;19.06;76.59
17785;BME280;9016;53.582;10.062;2023-07-13T04:57:09;101182.13;;;19.12;76.51
17785;BME280;9016;53.582;10.062;2023-07-13T04:59:37;101178.94;;;18.98;76.29
17785;BME280;9016;53.582;10.062;2023-07-13T05:02:06;101183.25;;;19.10;76.45
17785;BME280;9016;53.582;10.062;2023-07-13T05:04:35;101183.69;;;19.15;75.65
17785;BME280;9016;53.582;10.062;2023-07-13T05:07:05;101188.25;;;19.14;74.65
17785;BME280;9016;53.582;10.062;2023-07-13T05:09:33;101195.41;;;19.25;75.63
17785;BME280;9016;53.582;10.062;2023-07-13T05:12:02;101192.50;;;19.37;74.64
17785;BME280;9016;53.582;10.062;2023-07-13T05:14:30;101191.94;;;19.43;73.81
17785;BME280;9016;53.582;10.062;2023-07-13T05:16:58;101187.50;;;19.42;72.41
17785;BME280;9016;53.582;10.062;2023-07-13T05:19:26;101197.22;;;19.45;73.02
17785;BME280;9016;53.582;10.062;2023-07-13T05:21:56;101203.63;;;19.53;72.47
17785;BME280;9016;53.582;10.062;2023-07-13T05:24:24;101197.81;;;19.58;72.62
17785;BME280;9016;53.582;10.062;2023-07-13T05:26:52;101212.66;;;19.73;72.31
17785;BME280;9016;53.582;10.062;2023-07-13T05:29:21;101205.84;;;19.98;71.40
17785;BME280;9016;53.582;10.062;2023-07-13T05:31:50;101208.84;;;19.95;71.51
17785;BME280;9016;53.582;10.062;2023-07-13T05:34:18;101215.44;;;20.30;70.55
17785;BME280;9016;53.582;10.062;2023-07-13T05:36:46;101211.88;;;20.39;69.35
17785;BME280;9016;53.582;10.062;2023-07-13T05:39:16;101207.31;;;20.21;70.00
17785;BME280;9016;53.582;10.062;2023-07-13T05:41:44;101209.72;;;20.52;70.09
17785;BME280;9016;53.582;10.062;2023-07-13T05:44:12;101211.09;;;20.66;69.76
17785;BME280;9016;53.582;10.062;2023-07-13T05:46:40;101208.13;;;20.69;69.27
17785;BME280;9016;53.582;10.062;2023-07-13T05:49:08;101219.94;;;20.78;69.49
17785;BME280;9016;53.582;10.062;2023-07-13T05:51:37;101213.97;;;20.55;70.12
17785;BME280;9016;53.582;10.062;2023-07-13T05:54:05;101220.41;;;20.44;70.12
17785;BME280;9016;53.582;10.062;2023-07-13T05:56:34;101220.28;;;20.27;70.85
17785;BME280;9016;53.582;10.062;2023-07-13T05:59:02;101221.28;;;20.35;71.02
17785;BME280;9016;53.582;10.062;2023-07-13T06:01:31;101223.28;;;20.43;71.66
17785;BME280;9016;53.582;10.062;2023-07-13T06:03:59;101225.25;;;20.50;70.83
17785;BME280;9016;53.582;10.062;2023-07-13T06:06:27;101230.38;;;20.63;70.92
17785;BME280;9016;53.582;10.062;2023-07-13T06:08:55;101223.75;;;20.85;70.24
17785;BME280;9016;53.582;10.062;2023-07-13T06:11:25;101238.50;;;20.63;69.88
17785;BME280;9016;53.582;10.062;2023-07-13T06:13:56;101232.81;;;20.56;69.76
17785;BME280;9016;53.582;10.062;2023-07-13T06:16:24;101234.09;;;20.62;69.62
17785;BME280;9016;53.582;10.062;2023-07-13T06:18:51;101244.47;;;20.57;69.77
17785;BME280;9016;53.582;10.062;2023-07-13T06:21:21;101239.66;;;20.51;70.23
17785;BME280;9016;53.582;10.062;2023-07-13T06:23:50;101232.66;;;20.67;70.21
17785;BME280;9016;53.582;10.062;2023-07-13T06:26:20;101242.22;;;20.62;70.10
17785;BME280;9016;53.582;10.062;2023-07-13T06:28:48;101234.66;;;20.75;69.87
17785;BME280;9016;53.582;10.062;2023-07-13T06:31:18;101241.50;;;20.69;69.00
17785;BME280;9016;53.582;10.062;2023-07-13T06:33:46;101232.94;;;20.64;70.18
17785;BME280;9016;53.582;10.062;2023-07-13T06:36:14;101231.31;;;20.81;69.90
17785;BME280;9016;53.582;10.062;2023-07-13T06:38:42;101233.59;;;20.95;69.11
17785;BME280;9016;53.582;10.062;2023-07-13T06:41:10;101243.25;;;20.98;68.87
17785;BME280;9016;53.582;10.062;2023-07-13T06:43:39;101247.28;;;21.03;69.31
17785;BME280;9016;53.582;10.062;2023-07-13T06:46:07;101241.03;;;21.39;68.32
17785;BME280;9016;53.582;10.062;2023-07-13T06:48:37;101247.09;;;21.78;66.64
17785;BME280;9016;53.582;10.062;2023-07-13T06:51:05;101249.13;;;21.76;66.03
17785;BME280;9016;53.582;10.062;2023-07-13T06:53:33;101257.38;;;21.84;64.98
17785;BME280;9016;53.582;10.062;2023-07-13T06:56:01;101250.63;;;21.61;65.04
17785;BME280;9016;53.582;10.062;2023-07-13T06:58:29;101244.06;;;21.63;66.10
17785;BME280;9016;53.582;10.062;2023-07-13T07:00:57;101250.63;;;21.88;65.07
17785;BME280;9016;53.582;10.062;2023-07-13T07:03:25;101250.03;;;21.67;65.08
17785;BME280;9016;53.582;10.062;2023-07-13T07:06:00;101250.78;;;21.59;65.45
17785;BME280;9016;53.582;10.062;2023-07-13T07:08:28;101249.00;;;21.68;65.68
17785;BME280;9016;53.582;10.062;2023-07-13T07:10:56;101251.72;;;21.95;64.76
17785;BME280;9016;53.582;10.062;2023-07-13T07:13:24;101248.56;;;21.73;65.15
17785;BME280;9016;53.582;10.062;2023-07-13T07:15:52;101255.03;;;22.16;63.98
17785;BME280;9016;53.582;10.062;2023-07-13T07:18:20;101252.91;;;22.81;62.76
17785;BME280;9016;53.582;10.062;2023-07-13T07:20:49;101252.81;;;23.41;60.97
17785;BME280;9016;53.582;10.062;2023-07-13T07:23:18;101258.25;;;24.25;58.20
17785;BME280;9016;53.582;10.062;2023-07-13T07:25:48;101259.25;;;24.24;56.50
17785;BME280;9016;53.582;10.062;2023-07-13T07:28:18;101247.59;;;25.51;54.46
17785;BME280;9016;53.582;10.062;2023-07-13T07:30:52;101251.16;;;26.28;51.97
17785;BME280;9016;53.582;10.062;2023-07-13T07:33:41;101242.53;;;28.01;47.53
17785;BME280;9016;53.582;10.062;2023-07-13T07:36:10;101250.16;;;28.42;45.77
17785;BME280;9016;53.582;10.062;2023-07-13T07:38:43;101241.19;;;28.12;45.62
17785;BME280;9016;53.582;10.062;2023-07-13T07:41:11;101252.00;;;29.66;44.31
17785;BME280;9016;53.582;10.062;2023-07-13T07:43:42;101251.06;;;29.80;42.20
17785;BME280;9016;53.582;10.062;2023-07-13T07:46:10;101252.13;;;29.86;42.34
17785;BME280;9016;53.582;10.062;2023-07-13T07:48:38;101259.94;;;29.82;41.99
17785;BME280;9016;53.582;10.062;2023-07-13T07:51:06;101255.94;;;28.95;42.74
17785;BME280;9016;53.582;10.062;2023-07-13T07:53:35;101258.72;;;27.96;44.12
17785;BME280;9016;53.582;10.062;2023-07-13T07:56:04;101255.97;;;28.74;43.42
17785;BME280;9016;53.582;10.062;2023-07-13T07:58:52;101250.81;;;28.08;45.17
17785;BME280;9016;53.582;10.062;2023-07-13T08:01:23;101254.09;;;28.75;43.35
17785;BME280;9016;53.582;10.062;2023-07-13T08:03:54;101248.84;;;27.87;44.97
17785;BME280;9016;53.582;10.062;2023-07-13T08:06:25;101253.38;;;29.15;43.65
17785;BME280;9016;53.582;10.062;2023-07-13T08:08:56;101244.13;;;29.22;41.84
17785;BME280;9016;53.582;10.062;2023-07-13T08:11:25;101243.66;;;29.12;41.97
17785;BME280;9016;53.582;10.062;2023-07-13T08:13:56;101244.31;;;28.93;42.19
17785;BME280;9016;53.582;10.062;2023-07-13T08:16:25;101238.00;;;30.02;40.53
17785;BME280;9016;53.582;10.062;2023-07-13T08:18:54;101234.13;;;30.57;39.63
17785;BME280;9016;53.582;10.062;2023-07-13T08:21:22;101247.31;;;29.26;41.54
17785;BME280;9016;53.582;10.062;2023-07-13T08:23:53;101250.53;;;28.17;42.99
17785;BME280;9016;53.582;10.062;2023-07-13T08:26:21;101251.78;;;27.86;44.31
17785;BME280;9016;53.582;10.062;2023-07-13T08:28:50;101244.63;;;28.56;41.93
17785;BME280;9016;53.582;10.062;2023-07-13T08:31:18;101236.31;;;29.19;41.41
17785;BME280;9016;53.582;10.062;2023-07-13T08:33:47;101242.94;;;29.66;40.83
17785;BME280;9016;53.582;10.062;2023-07-13T08:36:14;101246.81;;;29.44;40.99
17785;BME280;9016;53.582;10.062;2023-07-13T08:38:42;101243.28;;;29.22;41.61
17785;BME280;9016;53.582;10.062;2023-07-13T08:41:13;101249.38;;;28.69;42.39
17785;BME280;9016;53.582;10.062;2023-07-13T08:43:42;101251.63;;;28.59;42.74
17785;BME280;9016;53.582;10.062;2023-07-13T08:46:19;101254.81;;;27.03;45.58
17785;BME280;9016;53.582;10.062;2023-07-13T08:48:57;101248.88;;;26.09;47.70
17785;BME280;9016;53.582;10.062;2023-07-13T08:51:40;101261.19;;;25.59;49.86
17785;BME280;9016;53.582;10.062;2023-07-13T08:54:19;101242.56;;;26.09;49.33
17785;BME280;9016;53.582;10.062;2023-07-13T08:56:50;101250.41;;;26.34;49.44
17785;BME280;9016;53.582;10.062;2023-07-13T08:59:24;101250.75;;;26.09;49.65
17785;BME280;9016;53.582;10.062;2023-07-13T09:02:01;101252.22;;;25.50;50.09
17785;BME280;9016;53.582;10.062;2023-07-13T09:04:37;101257.00;;;27.22;47.58
17785;BME280;9016;53.582;10.062;2023-07-13T09:07:14;101256.97;;;28.10;44.45
17785;BME280;9016;53.582;10.062;2023-07-13T09:09:55;101255.94;;;28.68;42.57
17785;BME280;9016;53.582;10.062;2023-07-13T09:12:35;101259.56;;;27.68;43.17
17785;BME280;9016;53.582;10.062;2023-07-13T09:15:04;101252.44;;;29.08;41.16
17785;BME280;9016;53.582;10.062;2023-07-13T09:17:39;101255.19;;;29.29;40.56
17785;BME280;9016;53.582;10.062;2023-07-13T09:20:19;101242.69;;;30.08;38.38
17785;BME280;9016;53.582;10.062;2023-07-13T09:22:50;101258.03;;;29.83;38.81
17785;BME280;9016;53.582;10.062;2023-07-13T09:25:24;101259.44;;;28.41;40.69
17785;BME280;9016;53.582;10.062;2023-07-13T09:27:59;101260.03;;;27.71;42.24
17785;BME280;9016;53.582;10.062;2023-07-13T09:30:33;101259.34;;;29.59;39.23
17785;BME280;9016;53.582;10.062;2023-07-13T09:33:07;101255.06;;;28.67;40.08
17785;BME280;9016;53.582;10.062;2023-07-13T09:35:35;101251.00;;;29.74;39.85
17785;BME280;9016;53.582;10.062;2023-07-13T09:38:11;101253.59;;;30.55;37.61
17785;BME280;9016;53.582;10.062;2023-07-13T09:40:47;101259.94;;;29.14;38.46
17785;BME280;9016;53.582;10.062;2023-07-13T09:43:20;101247.78;;;29.64;38.17
17785;BME280;9016;53.582;10.062;2023-07-13T09:45:48;101250.19;;;29.11;39.50
17785;BME280;9016;53.582;10.062;2023-07-13T09:48:18;101256.97;;;28.67;40.13
17785;BME280;9016;53.582;10.062;2023-07-13T09:50:46;101258.06;;;27.65;41.64
17785;BME280;9016;53.582;10.062;2023-07-13T09:53:16;101264.00;;;27.83;41.47
17785;BME280;9016;53.582;10.062;2023-07-13T09:55:46;101263.00;;;29.04;39.90
17785;BME280;9016;53.582;10.062;2023-07-13T09:58:20;101267.38;;;28.99;39.04
17785;BME280;9016;53.582;10.062;2023-07-13T10:00:55;101265.19;;;28.10;40.26
17785;BME280;9016;53.582;10.062;2023-07-13T10:03:28;101264.78;;;27.48;42.55
17785;BME280;9016;53.582;10.062;2023-07-13T10:06:03;101270.00;;;27.06;43.66
17785;BME280;9016;53.582;10.062;2023-07-13T10:08:37;101263.03;;;26.58;43.86
17785;BME280;9016;53.582;10.062;2023-07-13T10:11:10;101262.19;;;26.35;44.13
17785;BME280;9016;53.582;10.062;2023-07-13T10:13:42;101262.16;;;26.12;44.98
17785;BME280;9016;53.582;10.062;2023-07-13T10:16:10;101266.34;;;25.92;46.44
17785;BME280;9016;53.582;10.062;2023-07-13T10:18:43;101271.59;;;25.71;46.26
17785;BME280;9016;53.582;10.062;2023-07-13T10:21:15;101261.44;;;25.49;45.86
17785;BME280;9016;53.582;10.062;2023-07-13T10:23:51;101255.31;;;25.86;45.85
17785;BME280;9016;53.582;10.062;2023-07-13T10:26:25;101248.50;;;26.80;43.41
17785;BME280;9016;53.582;10.062;2023-07-13T10:28:56;101246.22;;;27.06;42.21
17785;BME280;9016;53.582;10.062;2023-07-13T10:31:27;101249.06;;;27.13;42.45
17785;BME280;9016;53.582;10.062;2023-07-13T10:33:56;101248.00;;;27.14;42.42
17785;BME280;9016;53.582;10.062;2023-07-13T10:36:31;101246.56;;;26.89;42.01
17785;BME280;9016;53.582;10.062;2023-07-13T10:39:03;101246.47;;;27.63;41.01
17785;BME280;9016;53.582;10.062;2023-07-13T10:41:38;101250.47;;;27.82;40.01
17785;BME280;9016;53.582;10.062;2023-07-13T10:44:18;101241.44;;;27.81;40.17
17785;BME280;9016;53.582;10.062;2023-07-13T10:46:49;101253.88;;;28.13;39.17
17785;BME280;9016;53.582;10.062;2023-07-13T10:49:19;101252.50;;;28.23;38.77
17785;BME280;9016;53.582;10.062;2023-07-13T10:51:48;101254.63;;;27.92;38.97
17785;BME280;9016;53.582;10.062;2023-07-13T10:54:19;101244.84;;;27.39;39.71
17785;BME280;9016;53.582;10.062;2023-07-13T10:56:52;101245.03;;;27.53;40.24
17785;BME280;9016;53.582;10.062;2023-07-13T10:59:25;101250.34;;;27.69;39.17
17785;BME280;9016;53.582;10.062;2023-07-13T11:01:57;101245.63;;;27.48;39.87
17785;BME280;9016;53.582;10.062;2023-07-13T11:04:39;101247.03;;;26.92;40.21
17785;BME280;9016;53.582;10.062;2023-07-13T11:07:11;101258.78;;;26.33;41.93
17785;BME280;9016;53.582;10.062;2023-07-13T11:09:49;101258.59;;;26.04;41.00
17785;BME280;9016;53.582;10.062;2023-07-13T11:12:49;101252.94;;;26.36;40.26
17785;BME280;9016;53.582;10.062;2023-07-13T11:15:32;101239.56;;;26.86;39.35
17785;BME280;9016;53.582;10.062;2023-07-13T11:18:04;101244.31;;;26.92;40.41
17785;BME280;9016;53.582;10.062;2023-07-13T11:20:48;101245.66;;;27.11;40.41
17785;BME280;9016;53.582;10.062;2023-07-13T11:23:28;101251.66;;;27.44;41.30
17785;BME280;9016;53.582;10.062;2023-07-13T11:25:57;101241.53;;;27.15;40.20
17785;BME280;9016;53.582;10.062;2023-07-13T11:28:30;101248.22;;;27.12;39.21
17785;BME280;9016;53.582;10.062;2023-07-13T11:31:03;101236.56;;;27.33;40.62
17785;BME280;9016;53.582;10.062;2023-07-13T11:33:57;101245.31;;;27.43;39.56
17785;BME280;9016;53.582;10.062;2023-07-13T11:36:32;101249.69;;;27.52;40.12
17785;BME280;9016;53.582;10.062;2023-07-13T11:39:10;101254.47;;;27.35;39.78
17785;BME280;9016;53.582;10.062;2023-07-13T11:41:45;101248.59;;;27.09;39.09
17785;BME280;9016;53.582;10.062;2023-07-13T11:44:19;101246.44;;;26.82;39.28
17785;BME280;9016;53.582;10.062;2023-07-13T11:46:49;101255.19;;;27.00;39.72
17785;BME280;9016;53.582;10.062;2023-07-13T11:49:23;101253.75;;;27.04;39.42
17785;BME280;9016;53.582;10.062;2023-07-13T11:51:56;101252.78;;;26.83;39.65
17785;BME280;9016;53.582;10.062;2023-07-13T11:54:28;101257.84;;;26.49;39.07
17785;BME280;9016;53.582;10.062;2023-07-13T11:56:58;101258.97;;;26.31;39.79
17785;BME280;9016;53.582;10.062;2023-07-13T11:59:29;101260.50;;;26.34;39.76
17785;BME280;9016;53.582;10.062;2023-07-13T12:01:59;101255.56;;;26.29;39.87
17785;BME280;9016;53.582;10.062;2023-07-13T12:04:32;101262.25;;;26.27;40.44
17785;BME280;9016;53.582;10.062;2023-07-13T12:07:07;101260.59;;;25.87;41.27
17785;BME280;9016;53.582;10.062;2023-07-13T12:09:36;101262.31;;;25.80;41.46
17785;BME280;9016;53.582;10.062;2023-07-13T12:12:10;101264.38;;;25.78;41.63
17785;BME280;9016;53.582;10.062;2023-07-13T12:14:39;101271.59;;;25.71;42.62
17785;BME280;9016;53.582;10.062;2023-07-13T12:17:15;101271.72;;;25.70;43.61
17785;BME280;9016;53.582;10.062;2023-07-13T12:19:43;101283.22;;;25.57;43.15
17785;BME280;9016;53.582;10.062;2023-07-13T12:22:16;101326.59;;;25.36;43.99
17785;BME280;9016;53.582;10.062;2023-07-13T12:24:47;101351.06;;;23.38;57.77
17785;BME280;9016;53.582;10.062;2023-07-13T12:27:21;101392.94;;;21.66;64.05
17785;BME280;9016;53.582;10.062;2023-07-13T12:29:51;101408.13;;;20.83;70.44
17785;BME280;9016;53.582;10.062;2023-07-13T12:32:20;101407.53;;;20.51;72.36
17785;BME280;9016;53.582;10.062;2023-07-13T12:34:52;101417.66;;;20.68;73.23
17785;BME280;9016;53.582;10.062;2023-07-13T12:37:22;101421.66;;;20.73;72.00
17785;BME280;9016;53.582;10.062;2023-07-13T12:39:51;101410.09;;;20.71;72.89
17785;BME280;9016;53.582;10.062;2023-07-13T12:42:21;101413.41;;;20.85;74.31
17785;BME280;9016;53.582;10.062;2023-07-13T12:44:54;101412.44;;;20.95;73.51
17785;BME280;9016;53.582;10.062;2023-07-13T12:47:24;101407.28;;;20.92;74.93
17785;BME280;9016;53.582;10.062;2023-07-13T12:49:57;101409.56;;;21.25;74.09
17785;BME280;9016;53.582;10.062;2023-07-13T12:52:31;101416.97;;;21.52;73.82
17785;BME280;9016;53.582;10.062;2023-07-13T12:55:06;101412.75;;;21.86;73.89
17785;BME280;9016;53.582;10.062;2023-07-13T12:57:41;101417.91;;;22.16;72.88
17785;BME280;9016;53.582;10.062;2023-07-13T13:00:22;101414.13;;;22.54;71.76
17785;BME280;9016;53.582;10.062;2023-07-13T13:02:53;101414.41;;;22.60;70.38
17785;BME280;9016;53.582;10.062;2023-07-13T13:05:41;101406.03;;;22.72;70.17
17785;BME280;9016;53.582;10.062;2023-07-13T13:08:12;101419.00;;;22.78;68.28